createdAt,value
2023-01-04T00:01:51.954Z,16.89
2023-01-04T00:04:18.639Z,14.30
2023-01-04T00:06:45.284Z,15.83
2023-01-04T00:09:11.944Z,15.66
2023-01-04T00:11:38.643Z,15.33
2023-01-04T00:14:05.328Z,14.10
2023-01-04T00:16:34.961Z,13.56
2023-01-04T00:19:01.644Z,11.64
2023-01-04T00:21:29.313Z,12.53
2023-01-04T00:23:57.530Z,11.03
2023-01-04T00:26:25.691Z,10.69
2023-01-04T00:28:55.975Z,10.58
2023-01-04T00:31:23.351Z,10.21
2023-01-04T00:33:56.381Z,10.50
2023-01-04T00:36:23.092Z,10.55
2023-01-04T00:38:49.781Z,10.83
2023-01-04T00:41:34.847Z,10.86
2023-01-04T00:44:03.586Z,11.61
2023-01-04T00:46:31.336Z,11.44
2023-01-04T00:49:00.515Z,12.68
2023-01-04T00:51:28.300Z,12.48
2023-01-04T00:53:54.992Z,12.29
2023-01-04T00:56:21.614Z,11.49
2023-01-04T00:58:48.260Z,11.28
2023-01-04T01:01:14.979Z,11.53
2023-01-04T01:03:41.875Z,11.16
2023-01-04T01:06:08.608Z,11.70
2023-01-04T01:08:35.406Z,12.20
2023-01-04T01:11:06.743Z,13.37
2023-01-04T01:13:33.402Z,13.13
2023-01-04T01:16:37.816Z,12.78
2023-01-04T01:19:06.274Z,12.21
2023-01-04T01:21:32.903Z,12.12
2023-01-04T01:24:01.904Z,12.60
2023-01-04T01:26:31.649Z,13.51
2023-01-04T01:28:58.732Z,13.42
2023-01-04T01:31:26.663Z,13.58
2023-01-04T01:33:54.622Z,13.02
2023-01-04T01:36:21.877Z,13.22
2023-01-04T01:38:48.513Z,13.16
2023-01-04T01:41:26.025Z,12.70
2023-01-04T01:43:56.447Z,12.62
2023-01-04T01:46:26.028Z,13.42
2023-01-04T01:48:55.075Z,13.91
2023-01-04T01:51:21.718Z,13.45
2023-01-04T01:53:49.724Z,13.82
2023-01-04T01:56:16.417Z,14.28
2023-01-04T01:58:46.665Z,14.94
2023-01-04T02:01:13.441Z,14.00
2023-01-04T02:03:40.891Z,14.54
2023-01-04T02:06:12.633Z,14.54
2023-01-04T02:08:40.376Z,14.89
2023-01-04T02:11:07.017Z,14.11
2023-01-04T02:13:34.627Z,13.98
2023-01-04T02:16:15.183Z,13.60
2023-01-04T02:19:16.014Z,13.58
2023-01-04T02:22:01.186Z,13.57
2023-01-04T02:24:57.952Z,12.87
2023-01-04T02:27:36.306Z,12.98
2023-01-04T02:30:13.224Z,12.22
2023-01-04T02:32:48.095Z,12.38
2023-01-04T02:35:17.161Z,12.70
2023-01-04T02:37:57.749Z,12.81
2023-01-04T02:40:48.407Z,11.05
2023-01-04T02:43:31.526Z,10.34
2023-01-04T02:46:31.121Z,11.42
2023-01-04T02:49:00.670Z,10.59
2023-01-04T02:51:35.014Z,9.61
2023-01-04T02:54:10.913Z,8.82
2023-01-04T02:57:12.919Z,8.19
2023-01-04T03:00:03.681Z,9.87
2023-01-04T03:02:57.416Z,10.02
2023-01-04T03:05:42.187Z,10.37
2023-01-04T03:08:33.416Z,10.59
2023-01-04T03:11:03.047Z,10.66
2023-01-04T03:13:31.983Z,11.00
2023-01-04T03:16:02.277Z,10.99
2023-01-04T03:18:34.521Z,13.41
2023-01-04T03:21:01.667Z,13.85
2023-01-04T03:23:29.724Z,15.34
2023-01-04T03:26:03.340Z,15.04
2023-01-04T03:28:31.967Z,15.01
2023-01-04T03:31:02.506Z,15.46
2023-01-04T03:33:29.178Z,14.89
2023-01-04T03:36:10.913Z,14.37
2023-01-04T03:38:44.396Z,14.55
2023-01-04T03:41:18.084Z,14.10
2023-01-04T03:43:50.871Z,13.25
2023-01-04T03:46:38.935Z,12.78
2023-01-04T03:49:16.238Z,13.05
2023-01-04T03:51:42.882Z,13.65
2023-01-04T03:54:19.947Z,13.65
2023-01-04T03:56:46.587Z,13.84
2023-01-04T03:59:13.235Z,14.13
2023-01-04T04:01:40.044Z,13.75
2023-01-04T04:04:06.869Z,13.66
2023-01-04T04:06:33.597Z,13.82
2023-01-04T04:09:00.518Z,14.00
2023-01-04T04:11:27.322Z,13.66
2023-01-04T04:13:53.984Z,13.41
2023-01-04T04:16:20.658Z,13.02
2023-01-04T04:18:47.407Z,13.55
2023-01-04T04:21:14.368Z,13.65
2023-01-04T04:23:41.076Z,13.19
2023-01-04T04:26:07.726Z,13.62
2023-01-04T04:28:34.354Z,13.42
2023-01-04T04:31:00.977Z,12.98
2023-01-04T04:33:27.618Z,12.36
2023-01-04T04:35:54.709Z,11.37
2023-01-04T04:38:21.557Z,11.19
2023-01-04T04:40:48.189Z,10.74
2023-01-04T04:43:14.849Z,10.31
2023-01-04T04:45:41.549Z,9.35
2023-01-04T04:48:08.222Z,8.27
2023-01-04T04:50:34.856Z,8.31
2023-01-04T04:53:01.506Z,7.52
2023-01-04T04:55:28.148Z,7.81
2023-01-04T04:57:54.776Z,8.19
2023-01-04T05:00:21.455Z,8.77
2023-01-04T05:02:48.228Z,9.05
2023-01-04T05:05:15.059Z,9.25
2023-01-04T05:07:41.715Z,8.88
2023-01-04T05:10:08.402Z,7.66
2023-01-04T05:12:35.119Z,7.55
2023-01-04T05:15:01.762Z,7.78
2023-01-04T05:17:28.403Z,7.63
2023-01-04T05:19:55.018Z,7.04
2023-01-04T05:22:21.650Z,6.95
2023-01-04T05:24:48.269Z,6.88
2023-01-04T05:27:14.892Z,7.34
2023-01-04T05:29:41.508Z,7.14
2023-01-04T05:32:08.174Z,6.44
2023-01-04T05:34:34.862Z,6.35
2023-01-04T05:37:01.502Z,6.52
2023-01-04T05:39:28.146Z,6.57
2023-01-04T05:41:54.775Z,6.77
2023-01-04T05:44:21.390Z,6.53
2023-01-04T05:46:48.022Z,6.71
2023-01-04T05:49:14.679Z,6.41
2023-01-04T05:51:41.311Z,6.21
2023-01-04T05:54:07.977Z,6.37
2023-01-04T05:56:34.634Z,6.63
2023-01-04T05:59:01.258Z,6.55
2023-01-04T06:01:27.934Z,6.20
2023-01-04T06:03:54.613Z,6.26
2023-01-04T06:06:21.285Z,6.20
2023-01-04T06:08:47.904Z,5.98
2023-01-04T06:11:14.555Z,6.93
2023-01-04T06:13:41.210Z,6.07
2023-01-04T06:16:07.974Z,5.95
2023-01-04T06:18:34.649Z,5.49
2023-01-04T06:21:01.291Z,5.57
2023-01-04T06:23:27.939Z,5.43
2023-01-04T06:25:54.577Z,5.43
2023-01-04T06:28:21.217Z,5.23
2023-01-04T06:30:47.906Z,5.19
2023-01-04T06:33:14.596Z,5.25
2023-01-04T06:35:41.242Z,5.43
2023-01-04T06:38:07.894Z,5.18
2023-01-04T06:40:34.529Z,5.63
2023-01-04T06:43:01.175Z,5.66
2023-01-04T06:45:27.867Z,5.57
2023-01-04T06:47:54.516Z,5.36
2023-01-04T06:50:21.245Z,5.27
2023-01-04T06:52:47.871Z,5.53
2023-01-04T06:55:14.510Z,5.44
2023-01-04T06:57:41.153Z,5.76
2023-01-04T07:00:08.375Z,5.52
2023-01-04T07:02:35.208Z,5.53
2023-01-04T07:05:02.347Z,5.33
2023-01-04T07:07:29.028Z,5.23
2023-01-04T07:09:55.753Z,5.38
2023-01-04T07:12:22.396Z,5.22
2023-01-04T07:14:49.060Z,5.26
2023-01-04T07:17:15.720Z,5.36
2023-01-04T07:19:42.371Z,4.93
2023-01-04T07:22:09.039Z,5.24
2023-01-04T07:24:35.693Z,5.10
2023-01-04T07:27:02.318Z,5.26
2023-01-04T07:29:28.949Z,5.52
2023-01-04T07:31:55.611Z,5.35
2023-01-04T07:34:25.438Z,5.73
2023-01-04T07:36:52.151Z,5.63
2023-01-04T07:39:18.805Z,5.62
2023-01-04T07:41:45.666Z,5.34
2023-01-04T07:44:12.357Z,5.65
2023-01-04T07:46:39.444Z,5.65
2023-01-04T07:49:08.991Z,5.98
2023-01-04T07:51:38.278Z,5.78
2023-01-04T07:54:05.243Z,5.32
2023-01-04T07:56:31.888Z,6.06
2023-01-04T07:58:58.545Z,5.16
2023-01-04T08:01:25.721Z,5.41
2023-01-04T08:03:52.541Z,5.59
2023-01-04T08:06:19.637Z,5.72
2023-01-04T08:08:46.282Z,5.82
2023-01-04T08:11:15.216Z,5.57
2023-01-04T08:13:42.526Z,5.93
2023-01-04T08:16:11.130Z,5.53
2023-01-04T08:18:37.818Z,5.45
2023-01-04T08:21:08.084Z,5.41
2023-01-04T08:23:35.553Z,5.23
2023-01-04T08:26:09.399Z,5.16
2023-01-04T08:28:36.057Z,5.47
2023-01-04T08:31:08.306Z,5.45
2023-01-04T08:33:36.033Z,5.66
2023-01-04T08:36:11.690Z,5.06
2023-01-04T08:41:55.943Z,4.83
2023-01-04T08:44:11.597Z,4.94
2023-01-04T08:46:38.312Z,4.95
2023-01-04T08:49:05.036Z,4.55
2023-01-04T08:51:31.819Z,4.51
2023-01-04T08:54:00.898Z,4.07
2023-01-04T08:56:27.570Z,4.09
2023-01-04T08:58:54.302Z,3.99
2023-01-04T09:01:21.063Z,4.04
2023-01-04T09:03:47.865Z,6.40
2023-01-04T09:06:14.914Z,4.25
2023-01-04T09:08:42.048Z,5.51
2023-01-04T09:11:10.493Z,4.99
2023-01-04T09:13:37.147Z,6.86
2023-01-04T09:16:04.844Z,5.52
2023-01-04T09:18:32.801Z,4.21
2023-01-04T09:20:59.894Z,4.52
2023-01-04T09:23:26.995Z,4.16
2023-01-04T09:25:53.663Z,3.95
2023-01-04T09:28:20.300Z,3.83
2023-01-04T09:30:47.151Z,4.01
2023-01-04T09:33:13.862Z,4.23
2023-01-04T09:35:40.530Z,4.22
2023-01-04T09:38:07.223Z,4.23
2023-01-04T09:40:43.333Z,4.14
2023-01-04T09:43:20.602Z,4.39
2023-01-04T09:45:48.704Z,4.31
2023-01-04T09:48:25.186Z,4.41
2023-01-04T09:51:00.752Z,3.85
2023-01-04T09:53:29.836Z,4.23
2023-01-04T09:56:33.275Z,4.34
2023-01-04T09:59:06.078Z,4.04
2023-01-04T10:01:54.220Z,5.63
2023-01-04T10:04:24.722Z,4.59
2023-01-04T10:06:52.888Z,4.41
2023-01-04T10:09:19.642Z,4.39
2023-01-04T10:12:04.449Z,4.50
2023-01-04T10:14:35.127Z,5.51
2023-01-04T10:17:55.154Z,4.58
2023-01-04T10:23:43.054Z,4.35
2023-01-04T10:26:13.882Z,4.38
2023-01-04T10:28:55.436Z,4.03
2023-01-04T10:31:39.492Z,4.30
2023-01-04T10:34:25.798Z,4.61
2023-01-04T10:36:56.749Z,4.14
2023-01-04T10:39:32.100Z,4.54
2023-01-04T10:42:18.154Z,4.17
2023-01-04T10:44:49.817Z,4.51
2023-01-04T10:47:23.604Z,4.07
2023-01-04T10:49:53.878Z,4.25
2023-01-04T10:52:27.318Z,4.18
2023-01-04T10:55:04.892Z,4.11
2023-01-04T10:57:53.820Z,4.15
2023-01-04T11:00:24.307Z,4.18
2023-01-04T11:03:28.457Z,4.22
2023-01-04T11:06:00.334Z,3.96
2023-01-04T11:08:30.820Z,4.03
2023-01-04T11:11:00.838Z,4.03
2023-01-04T11:13:27.482Z,4.07
2023-01-04T11:15:54.193Z,4.15
2023-01-04T11:18:23.202Z,4.19
2023-01-04T11:20:50.121Z,4.64
2023-01-04T11:23:18.137Z,4.40
2023-01-04T11:25:55.530Z,4.30
2023-01-04T11:28:31.344Z,4.23
2023-01-04T11:31:22.267Z,5.09
2023-01-04T11:33:59.615Z,6.90
2023-01-04T11:36:39.288Z,5.84
2023-01-04T11:39:08.923Z,6.23
2023-01-04T11:41:35.600Z,6.30
2023-01-04T11:44:04.443Z,5.72
2023-01-04T11:46:31.638Z,5.64
2023-01-04T11:48:58.495Z,5.90
2023-01-04T11:51:25.011Z,6.07
2023-01-04T11:54:04.742Z,6.49
2023-01-04T11:56:38.198Z,8.59
2023-01-04T11:59:22.651Z,8.80
2023-01-04T12:01:52.094Z,9.02
2023-01-04T12:04:21.916Z,9.19
2023-01-04T12:06:51.022Z,9.82
2023-01-04T12:09:18.471Z,9.63
2023-01-04T12:11:49.555Z,9.53
2023-01-04T12:14:31.634Z,9.16
2023-01-04T12:17:06.522Z,9.14
2023-01-04T12:19:33.837Z,9.29
2023-01-04T12:22:04.260Z,9.69
2023-01-04T12:24:31.941Z,9.16
2023-01-04T12:26:58.663Z,9.11
2023-01-04T12:29:25.211Z,9.20
2023-01-04T12:32:00.945Z,9.53
2023-01-04T12:34:30.332Z,9.51
2023-01-04T12:37:05.224Z,8.96
2023-01-04T12:39:44.890Z,9.62
2023-01-04T12:42:21.060Z,8.88
2023-01-04T12:44:47.611Z,8.86
2023-01-04T12:47:20.021Z,8.74
2023-01-04T12:50:14.034Z,8.55
2023-01-04T12:55:42.111Z,8.40
2023-01-04T13:01:26.775Z,8.85
2023-01-04T13:04:04.689Z,9.04
2023-01-04T13:06:34.330Z,9.20
2023-01-04T13:09:03.531Z,9.16
2023-01-04T13:11:54.767Z,8.53
2023-01-04T13:14:33.269Z,8.63
2023-01-04T13:17:19.817Z,8.70
2023-01-04T13:19:46.621Z,9.15
2023-01-04T13:22:23.406Z,8.66
2023-01-04T13:24:53.466Z,9.00
2023-01-04T13:27:22.110Z,9.08
2023-01-04T13:29:49.634Z,9.71
2023-01-04T13:32:26.986Z,9.77
2023-01-04T13:35:09.781Z,9.80
2023-01-04T13:37:44.268Z,9.13
2023-01-04T13:40:24.215Z,9.46
2023-01-04T13:42:52.357Z,9.61
2023-01-04T13:45:36.978Z,9.14
2023-01-04T13:48:05.401Z,9.75
2023-01-04T13:50:39.950Z,9.48
2023-01-04T13:53:08.525Z,8.99
2023-01-04T13:55:37.494Z,9.28
2023-01-04T13:58:15.906Z,9.38
2023-01-04T14:00:56.699Z,9.48
2023-01-04T14:03:30.622Z,9.32
2023-01-04T14:06:20.441Z,8.93
2023-01-04T14:09:05.755Z,9.31
2023-01-04T14:11:40.767Z,9.42
2023-01-04T14:14:33.973Z,9.75
2023-01-04T14:17:12.900Z,9.39
2023-01-04T14:19:47.701Z,9.44
2023-01-04T14:22:23.560Z,9.36
2023-01-04T14:25:09.007Z,9.98
2023-01-04T14:27:38.582Z,9.34
2023-01-04T14:30:35.831Z,9.97
2023-01-04T14:33:08.555Z,9.90
2023-01-04T14:35:41.858Z,9.74
2023-01-04T14:38:18.931Z,9.70
2023-01-04T14:40:45.606Z,10.21
2023-01-04T14:43:34.722Z,9.83
2023-01-04T14:46:01.605Z,9.29
2023-01-04T14:48:30.997Z,8.90
2023-01-04T14:50:59.782Z,8.69
2023-01-04T14:53:26.445Z,8.99
2023-01-04T14:55:53.087Z,8.76
2023-01-04T14:58:19.735Z,9.15
2023-01-04T15:00:46.716Z,9.63
2023-01-04T15:03:13.537Z,9.15
2023-01-04T15:05:41.574Z,8.94
2023-01-04T15:08:10.604Z,9.15
2023-01-04T15:10:37.269Z,9.35
2023-01-04T15:13:03.936Z,8.76
2023-01-04T15:15:31.343Z,8.57
2023-01-04T15:17:57.999Z,9.30
2023-01-04T15:20:24.737Z,8.84
2023-01-04T15:22:51.388Z,8.82
2023-01-04T15:25:18.084Z,8.83
2023-01-04T15:27:44.767Z,8.50
2023-01-04T15:30:11.956Z,7.99
2023-01-04T15:32:39.139Z,8.68
2023-01-04T15:35:06.078Z,8.71
2023-01-04T15:37:32.728Z,8.47
2023-01-04T15:40:02.772Z,8.52
2023-01-04T15:42:30.335Z,8.43
2023-01-04T15:44:56.984Z,8.37
2023-01-04T15:47:29.172Z,8.35
2023-01-04T15:49:55.877Z,8.30
2023-01-04T15:52:22.514Z,9.29
2023-01-04T15:54:49.445Z,15.97
2023-01-04T15:57:16.126Z,12.50
2023-01-04T15:59:42.867Z,10.45
2023-01-04T16:02:11.572Z,27.22
2023-01-04T16:04:38.438Z,24.94
2023-01-04T16:07:05.108Z,26.48
2023-01-04T16:09:34.758Z,20.53
2023-01-04T16:12:01.508Z,16.30
2023-01-04T16:14:28.219Z,12.77
2023-01-04T16:16:55.623Z,9.63
2023-01-04T16:19:22.290Z,8.68
2023-01-04T16:21:48.964Z,8.43
2023-01-04T16:24:44.871Z,9.13
2023-01-04T16:27:02.273Z,9.74
2023-01-04T16:29:28.921Z,8.85
2023-01-04T16:31:55.667Z,9.19
2023-01-04T16:34:29.850Z,9.24
2023-01-04T16:36:56.483Z,8.58
2023-01-04T16:39:28.356Z,8.58
2023-01-04T16:42:10.911Z,9.03
2023-01-04T16:44:40.969Z,9.32
2023-01-04T16:47:07.653Z,9.15
2023-01-04T16:49:36.780Z,10.28
2023-01-04T16:52:03.436Z,9.26
2023-01-04T16:54:30.106Z,9.63
2023-01-04T16:57:00.948Z,10.57
2023-01-04T16:59:27.670Z,11.02
2023-01-04T17:01:58.094Z,10.76
2023-01-04T17:04:25.183Z,13.09
2023-01-04T17:06:51.910Z,13.92
2023-01-04T17:09:19.151Z,13.00
2023-01-04T17:14:32.457Z,14.49
2023-01-04T17:16:59.810Z,11.97
2023-01-04T17:19:26.467Z,10.58
2023-01-04T17:21:53.124Z,11.19
2023-01-04T17:24:20.057Z,11.14
2023-01-04T17:26:47.073Z,10.58
2023-01-04T17:29:14.006Z,10.22
2023-01-04T17:31:41.457Z,10.42
2023-01-04T17:34:08.232Z,11.55
2023-01-04T17:36:34.905Z,11.41
2023-01-04T17:39:01.744Z,11.88
2023-01-04T17:41:28.949Z,11.29
2023-01-04T17:44:03.018Z,11.99
2023-01-04T17:46:31.695Z,11.65
2023-01-04T17:49:23.897Z,11.89
2023-01-04T17:51:49.959Z,12.00
2023-01-04T17:54:16.631Z,12.05
2023-01-04T17:56:43.314Z,11.38
2023-01-04T17:59:10.245Z,11.77
2023-01-04T18:01:37.049Z,11.28
2023-01-04T18:04:03.770Z,11.47
2023-01-04T18:06:32.979Z,11.54
2023-01-04T18:08:59.749Z,11.16
2023-01-04T18:11:26.382Z,11.46
2023-01-04T18:13:53.174Z,11.40
2023-01-04T18:16:25.258Z,11.52
2023-01-04T18:18:56.202Z,12.16
2023-01-04T18:21:28.470Z,12.58
2023-01-04T18:24:34.137Z,13.39
2023-01-04T18:27:19.264Z,16.93
2023-01-04T18:29:29.094Z,14.81
2023-01-04T18:31:55.848Z,13.93
2023-01-04T18:34:22.567Z,13.53
2023-01-04T18:36:49.219Z,14.27
2023-01-04T18:39:15.866Z,13.59
2023-01-04T18:41:42.537Z,15.95
2023-01-04T18:44:35.649Z,14.68
2023-01-04T18:46:55.775Z,13.70
2023-01-04T18:49:22.429Z,12.80
2023-01-04T18:51:49.087Z,12.90
2023-01-04T18:54:15.836Z,12.68
2023-01-04T18:56:42.492Z,13.22
2023-01-04T18:59:09.836Z,14.33
2023-01-04T19:01:36.601Z,14.09
2023-01-04T19:04:03.807Z,13.71
2023-01-04T19:06:30.481Z,13.76
2023-01-04T19:09:01.498Z,13.11
2023-01-04T19:11:31.277Z,12.90
2023-01-04T19:13:57.922Z,12.42
2023-01-04T19:16:24.627Z,13.43
2023-01-04T19:18:51.272Z,14.29
2023-01-04T19:21:17.901Z,14.53
2023-01-04T19:23:44.569Z,14.47
2023-01-04T19:26:13.701Z,14.30
2023-01-04T19:28:40.349Z,14.37
2023-01-04T19:31:07.588Z,14.25
2023-01-04T19:33:34.362Z,17.18
2023-01-04T19:36:00.995Z,17.21
2023-01-04T19:38:27.638Z,18.10
2023-01-04T19:40:57.803Z,20.84
2023-01-04T19:43:24.454Z,21.65
2023-01-04T19:45:51.126Z,20.23
2023-01-04T19:48:17.774Z,16.30
2023-01-04T19:50:44.417Z,15.19
2023-01-04T19:53:11.172Z,12.68
2023-01-04T19:55:42.323Z,12.35
2023-01-04T19:58:09.926Z,12.43
2023-01-04T20:00:36.587Z,12.50
2023-01-04T20:03:03.387Z,11.96
2023-01-04T20:05:30.169Z,12.33
2023-01-04T20:07:56.852Z,12.40
2023-01-04T20:10:23.520Z,12.12
2023-01-04T20:12:50.156Z,11.62
2023-01-04T20:15:16.850Z,12.57
2023-01-04T20:17:43.571Z,12.84
2023-01-04T20:20:10.204Z,13.98
2023-01-04T20:22:36.886Z,13.72
2023-01-04T20:25:03.563Z,14.35
2023-01-04T20:27:30.235Z,14.95
2023-01-04T20:29:56.909Z,15.32
2023-01-04T20:32:23.834Z,15.65
2023-01-04T20:34:50.509Z,14.89
2023-01-04T20:37:17.201Z,14.64
2023-01-04T20:39:43.874Z,13.93
2023-01-04T20:42:10.600Z,14.13
2023-01-04T20:44:37.755Z,14.11
2023-01-04T20:47:06.312Z,13.53
2023-01-04T20:49:32.989Z,14.55
2023-01-04T20:51:59.683Z,14.32
2023-01-04T20:54:26.452Z,14.67
2023-01-04T20:56:53.120Z,14.19
2023-01-04T20:59:19.810Z,13.41
2023-01-04T21:01:46.511Z,14.09
2023-01-04T21:04:13.270Z,13.74
2023-01-04T21:06:39.939Z,13.63
2023-01-04T21:09:07.165Z,14.14
2023-01-04T21:11:33.899Z,14.06
2023-01-04T21:14:00.596Z,14.01
2023-01-04T21:16:27.281Z,13.87
2023-01-04T21:18:53.941Z,14.39
2023-01-04T21:21:20.788Z,13.33
2023-01-04T21:23:49.512Z,14.14
2023-01-04T21:26:19.833Z,16.61
2023-01-04T21:28:46.767Z,15.66
2023-01-04T21:31:21.362Z,16.32
2023-01-04T21:33:48.135Z,15.83
2023-01-04T21:36:16.370Z,14.98
2023-01-04T21:38:43.087Z,14.34
2023-01-04T21:41:10.725Z,14.69
2023-01-04T21:43:37.564Z,14.65
2023-01-04T21:46:08.552Z,13.79
2023-01-04T21:48:35.639Z,13.41
2023-01-04T21:51:03.096Z,13.60
2023-01-04T21:53:30.443Z,13.74
2023-01-04T21:56:00.180Z,12.93
2023-01-04T21:58:27.010Z,12.53
2023-01-04T22:00:53.809Z,12.91
2023-01-04T22:03:20.497Z,12.44
2023-01-04T22:05:47.191Z,12.85
2023-01-04T22:08:13.860Z,12.61
2023-01-04T22:10:40.520Z,12.15
2023-01-04T22:13:07.189Z,12.13
2023-01-04T22:15:33.844Z,12.71
2023-01-04T22:18:00.508Z,10.87
2023-01-04T22:20:27.178Z,10.54
2023-01-04T22:22:53.857Z,11.63
2023-01-04T22:25:20.587Z,11.46
2023-01-04T22:27:53.371Z,11.38
2023-01-04T22:30:20.019Z,11.89
2023-01-04T22:32:46.670Z,11.10
2023-01-04T22:35:13.373Z,11.49
2023-01-04T22:37:40.048Z,11.34
2023-01-04T22:40:07.431Z,11.53
2023-01-04T22:42:34.283Z,10.92
2023-01-04T22:45:00.930Z,11.50
2023-01-04T22:47:27.608Z,11.29
2023-01-04T22:49:54.299Z,11.52
2023-01-04T22:52:20.974Z,10.87
2023-01-04T22:54:48.185Z,10.93
2023-01-04T22:57:14.951Z,10.86
2023-01-04T22:59:41.585Z,10.43
2023-01-04T23:02:08.257Z,10.20
2023-01-04T23:04:35.028Z,10.77
2023-01-04T23:07:01.843Z,10.68
2023-01-04T23:09:28.504Z,10.85
2023-01-04T23:11:55.233Z,10.99
2023-01-04T23:14:22.050Z,10.38
2023-01-04T23:16:48.774Z,10.41
2023-01-04T23:19:15.462Z,9.82
2023-01-04T23:21:42.147Z,9.31
2023-01-04T23:24:11.995Z,9.73
2023-01-04T23:26:38.664Z,9.45
2023-01-04T23:29:05.325Z,8.96
2023-01-04T23:31:32.211Z,8.01
2023-01-04T23:34:00.465Z,7.37
2023-01-04T23:36:29.085Z,6.99
2023-01-04T23:38:57.048Z,6.04
2023-01-04T23:41:23.743Z,6.08
2023-01-04T23:43:50.383Z,5.42
2023-01-04T23:46:17.562Z,5.03
2023-01-04T23:48:44.406Z,5.39
2023-01-04T23:51:16.699Z,5.54
2023-01-04T23:53:43.360Z,7.78
2023-01-04T23:56:14.421Z,8.05
2023-01-04T23:58:41.153Z,8.24
